Time;durP1;ratioP1;P1;durP2;ratioP2;P2;SDS_P1;SDS_P2;PMS_P1;PMS_P2;Temp;Humidity;BMP_temperature;BMP_pressure;BME280_temperature;BME280_humidity;BME280_pressure;Samples;Min_cycle;Max_cycle;Signal;HPM_P1;HPM_P2
2024/04/02 00:00:08;;;;;;;2.67;1.30;;;;;;;10.65;87.63;97167.00;4059871;29;20758;-84
2024/04/02 00:02:11;;;;;;;2.60;1.10;;;;;;;10.65;88.54;97164.41;4072555;29;21810;-84
2024/04/02 00:04:13;;;;;;;1.80;1.00;;;;;;;10.64;87.83;97175.78;4049434;29;20635;-84
2024/04/02 00:06:17;;;;;;;1.60;0.80;;;;;;;10.60;87.03;97173.53;4061221;29;20627;-84
2024/04/02 00:08:18;;;;;;;1.50;0.80;;;;;;;10.61;87.61;97177.81;4072351;29;20751;-84
2024/04/02 00:10:20;;;;;;;2.27;0.87;;;;;;;10.60;87.37;97184.81;4049945;29;20712;-84
2024/04/02 00:12:22;;;;;;;2.23;0.80;;;;;;;10.60;87.53;97186.56;4048115;29;20732;-84
2024/04/02 00:14:24;;;;;;;1.80;0.90;;;;;;;10.54;87.77;97190.53;4057684;29;21131;-84
2024/04/02 00:16:26;;;;;;;1.57;0.80;;;;;;;10.50;87.95;97198.75;4032846;29;20640;-84
2024/04/02 00:18:31;;;;;;;1.70;1.03;;;;;;;10.48;87.59;97209.28;4061380;29;20632;-84
2024/04/02 00:20:33;;;;;;;2.03;1.03;;;;;;;10.47;87.33;97207.63;4086772;28;20724;-84
2024/04/02 00:22:37;;;;;;;1.87;0.80;;;;;;;10.47;88.40;97206.81;4060250;29;20655;-84
2024/04/02 00:24:38;;;;;;;1.93;0.80;;;;;;;10.48;88.48;97211.91;4057441;29;20738;-84
2024/04/02 00:26:41;;;;;;;2.70;0.70;;;;;;;10.46;87.99;97206.00;4078542;28;20717;-84
2024/04/02 00:28:42;;;;;;;2.50;0.90;;;;;;;10.47;88.63;97222.44;4060802;29;20616;-84
2024/04/02 00:30:44;;;;;;;1.37;0.70;;;;;;;10.48;88.82;97221.50;4063135;29;20999;-84
2024/04/02 00:32:46;;;;;;;2.30;1.30;;;;;;;10.49;88.34;97223.13;4058731;29;20786;-83
2024/04/02 00:34:51;;;;;;;1.60;0.80;;;;;;;10.48;89.17;97213.69;4058737;29;20619;-84
2024/04/02 00:36:53;;;;;;;2.00;0.90;;;;;;;10.43;88.52;97221.88;4078503;29;20677;-84
2024/04/02 00:38:56;;;;;;;1.90;1.00;;;;;;;10.43;88.59;97210.59;4053838;29;20635;-83
2024/04/02 00:40:58;;;;;;;1.60;0.90;;;;;;;10.44;88.85;97217.47;4061118;29;20623;-84
2024/04/02 00:43:06;;;;;;;1.70;1.10;;;;;;;10.50;88.37;97222.19;4069659;29;20654;-84
2024/04/02 00:45:07;;;;;;;1.60;0.90;;;;;;;10.50;89.03;97219.59;4071493;29;20630;-83
2024/04/02 00:47:12;;;;;;;1.90;0.90;;;;;;;10.49;88.17;97220.53;4073697;29;20639;-84
2024/04/02 00:49:13;;;;;;;1.70;0.97;;;;;;;10.50;88.59;97227.41;4053357;29;20705;-84
2024/04/02 00:51:16;;;;;;;2.30;0.90;;;;;;;10.50;89.76;97224.81;4063828;29;20659;-83
2024/04/02 00:53:19;;;;;;;1.97;1.00;;;;;;;10.50;89.48;97230.03;4080001;29;20713;-83
2024/04/02 00:55:23;;;;;;;1.57;0.90;;;;;;;10.53;89.24;97240.19;4081643;29;20637;-84
2024/04/02 00:57:24;;;;;;;2.90;1.08;;;;;;;10.52;89.35;97236.75;4075000;29;21282;-84
2024/04/02 00:59:28;;;;;;;1.50;0.90;;;;;;;10.51;89.41;97235.09;4056679;29;20211;-84
2024/04/02 01:01:29;;;;;;;2.67;1.10;;;;;;;10.50;89.63;97237.84;4075524;29;20640;-84
2024/04/02 01:03:32;;;;;;;1.77;0.80;;;;;;;10.51;90.43;97244.72;4064103;29;21284;-83
2024/04/02 01:05:34;;;;;;;1.40;0.97;;;;;;;10.50;90.53;97248.25;4064060;29;20742;-84
2024/04/02 01:07:39;;;;;;;2.13;1.23;;;;;;;10.54;90.22;97249.66;4054215;29;20734;-83
2024/04/02 01:09:40;;;;;;;1.97;0.97;;;;;;;10.57;89.43;97252.00;4082639;29;21231;-83
2024/04/02 01:11:44;;;;;;;2.40;0.77;;;;;;;10.60;89.80;97250.00;4064530;29;21487;-84
2024/04/02 01:13:47;;;;;;;2.63;1.17;;;;;;;10.61;89.47;97248.22;4061010;29;20643;-84
2024/04/02 01:15:49;;;;;;;3.77;0.80;;;;;;;10.54;89.28;97250.50;4051573;29;20609;-83
2024/04/02 01:17:52;;;;;;;1.80;1.00;;;;;;;10.53;89.26;97250.63;4061902;29;20631;-83
2024/04/02 01:19:53;;;;;;;2.60;1.23;;;;;;;10.53;90.81;97254.03;4092158;28;20729;-84
2024/04/02 01:21:57;;;;;;;2.10;0.97;;;;;;;10.55;90.66;97252.13;4059093;29;21084;-84
2024/04/02 01:23:59;;;;;;;1.80;0.90;;;;;;;10.58;89.67;97257.09;4055605;29;21399;-84
2024/04/02 01:26:03;;;;;;;2.03;0.93;;;;;;;10.54;90.38;97257.47;4063887;29;20743;-84
2024/04/02 01:28:05;;;;;;;1.60;0.93;;;;;;;10.48;90.24;97260.59;4076325;29;20713;-83
2024/04/02 01:30:08;;;;;;;1.60;0.73;;;;;;;10.42;90.31;97271.53;4082629;29;20658;-84
2024/04/02 01:32:09;;;;;;;2.03;0.90;;;;;;;10.36;90.81;97265.03;4062385;29;20662;-84
2024/04/02 01:34:13;;;;;;;1.50;0.70;;;;;;;10.36;90.80;97272.03;4061383;29;20659;-84
2024/04/02 01:36:14;;;;;;;1.50;0.80;;;;;;;10.34;90.39;97271.28;4062624;29;20655;-84
2024/04/02 01:38:17;;;;;;;1.57;0.80;;;;;;;10.29;90.37;97275.25;4072995;29;20738;-84
2024/04/02 01:40:19;;;;;;;1.60;0.90;;;;;;;10.26;90.45;97275.50;4071248;29;20642;-83
2024/04/02 01:42:24;;;;;;;1.60;0.90;;;;;;;10.23;90.51;97270.53;4065731;29;20725;-84
2024/04/02 01:44:25;;;;;;;6.20;1.10;;;;;;;10.19;90.27;97269.91;4071251;29;20659;-84
2024/04/02 01:46:27;;;;;;;1.67;0.80;;;;;;;10.14;90.84;97268.66;4059899;29;20715;-83
2024/04/02 01:48:29;;;;;;;1.67;0.90;;;;;;;10.12;90.98;97284.41;4072786;28;20623;-83
2024/04/02 01:50:32;;;;;;;2.10;0.67;;;;;;;10.08;90.87;97282.97;4059965;29;21058;-83
2024/04/02 01:52:33;;;;;;;1.87;0.90;;;;;;;10.05;90.69;97278.00;4059159;29;20628;-83
2024/04/02 01:54:36;;;;;;;1.60;0.90;;;;;;;10.05;91.10;97277.19;4068670;29;20730;-83
2024/04/02 01:56:38;;;;;;;2.33;0.90;;;;;;;10.02;91.47;97282.63;4052122;29;20211;-83
2024/04/02 01:58:42;;;;;;;1.40;0.70;;;;;;;9.99;90.87;97281.09;4055432;29;21121;-83
2024/04/02 02:00:43;;;;;;;1.98;0.77;;;;;;;9.99;91.49;97282.88;4043095;29;20715;-83
2024/04/02 02:02:45;;;;;;;1.85;0.80;;;;;;;9.93;91.51;97280.72;4063949;29;20214;-83
2024/04/02 02:04:47;;;;;;;1.58;0.95;;;;;;;9.90;91.79;97279.19;4066842;29;20206;-84
2024/04/02 02:06:49;;;;;;;1.63;0.70;;;;;;;9.85;91.23;97286.53;4081956;29;20578;-83
2024/04/02 02:08:50;;;;;;;1.60;0.90;;;;;;;9.90;91.52;97291.38;4082029;29;20208;-83
2024/04/02 02:10:55;;;;;;;2.22;0.98;;;;;;;9.84;91.71;97291.84;4052389;29;20635;-83
2024/04/02 02:12:56;;;;;;;1.53;0.70;;;;;;;9.79;91.99;97290.56;4048256;29;20217;-83
2024/04/02 02:15:00;;;;;;;1.98;0.65;;;;;;;9.75;91.75;97294.38;4051791;29;20782;-83
2024/04/02 02:17:02;;;;;;;1.58;0.70;;;;;;;9.69;91.15;97295.66;4059790;28;20215;-83
2024/04/02 02:19:05;;;;;;;3.05;1.00;;;;;;;9.72;92.10;97298.03;4074502;29;20652;-82
2024/04/02 02:21:06;;;;;;;2.10;0.80;;;;;;;9.73;91.98;97302.28;4071714;29;20261;-83
2024/04/02 02:23:08;;;;;;;1.70;0.70;;;;;;;9.74;91.72;97311.78;4075560;29;20724;-84
2024/04/02 02:25:10;;;;;;;1.58;0.80;;;;;;;9.76;92.11;97317.69;4080998;29;20301;-83
2024/04/02 02:27:12;;;;;;;2.20;0.82;;;;;;;9.78;92.37;97317.56;4079175;29;20202;-83
2024/04/02 02:29:13;;;;;;;1.80;0.70;;;;;;;9.78;92.27;97315.78;4033854;29;20208;-83
2024/04/02 02:31:17;;;;;;;1.45;0.70;;;;;;;9.80;92.07;97313.06;4061541;29;20191;-84
2024/04/02 02:33:18;;;;;;;2.20;0.70;;;;;;;9.80;92.09;97316.47;4080253;29;20242;-83
2024/04/02 02:35:20;;;;;;;2.13;0.70;;;;;;;9.82;91.99;97322.41;4061883;29;20210;-83
2024/04/02 02:37:26;;;;;;;2.45;0.85;;;;;;;9.84;92.41;97320.50;4062706;29;20614;-83
2024/04/02 02:39:28;;;;;;;1.33;0.80;;;;;;;9.84;91.46;97316.13;4094130;28;20668;-84
2024/04/02 02:41:29;;;;;;;5.03;1.15;;;;;;;9.87;91.79;97328.91;4064971;28;21208;-83
2024/04/02 02:43:31;;;;;;;1.75;0.80;;;;;;;9.87;91.58;97331.50;4046335;29;20247;-83
2024/04/02 02:45:33;;;;;;;1.95;0.70;;;;;;;9.87;91.52;97334.09;4072445;29;20202;-83
2024/04/02 02:47:36;;;;;;;3.97;0.90;;;;;;;9.89;90.68;97337.44;4075931;28;20209;-81
2024/04/02 02:49:37;;;;;;;3.05;1.10;;;;;;;9.84;91.67;97343.13;4034728;29;20239;-83
2024/04/02 02:51:40;;;;;;;1.40;0.70;;;;;;;9.82;91.63;97342.38;4062061;29;20772;-83
2024/04/02 02:53:41;;;;;;;1.73;0.70;;;;;;;9.81;91.03;97340.75;4073898;29;20661;-83
2024/04/02 02:55:43;;;;;;;2.95;1.02;;;;;;;9.84;91.56;97340.53;4071406;29;20199;-83
2024/04/02 02:57:44;;;;;;;1.65;0.90;;;;;;;9.82;91.57;97347.59;4072671;29;20448;-83
2024/04/02 02:59:47;;;;;;;1.30;0.68;;;;;;;9.84;91.34;97352.56;4056280;29;20202;-83
2024/04/02 03:01:48;;;;;;;1.40;0.70;;;;;;;9.86;90.62;97347.25;4076611;29;20233;-83
2024/04/02 03:03:52;;;;;;;1.20;0.60;;;;;;;9.91;91.01;97352.94;4078045;29;20346;-83
2024/04/02 03:05:55;;;;;;;2.00;0.98;;;;;;;9.90;90.73;97357.31;4061537;29;20199;-82
2024/04/02 03:08:01;;;;;;;1.50;0.80;;;;;;;9.94;90.69;97356.16;4085069;29;20213;-82
2024/04/02 03:10:04;;;;;;;2.03;0.80;;;;;;;9.97;90.84;97358.53;4065930;29;20210;-82
2024/04/02 03:12:07;;;;;;;1.40;0.80;;;;;;;9.98;90.51;97359.34;4056712;29;20641;-82
2024/04/02 03:14:08;;;;;;;2.30;0.83;;;;;;;10.00;90.65;97363.50;4071884;29;20646;-83
2024/04/02 03:16:10;;;;;;;1.67;0.85;;;;;;;10.01;90.48;97364.31;4071477;29;20717;-82
2024/04/02 03:18:11;;;;;;;2.45;0.70;;;;;;;10.02;90.92;97364.22;4047407;29;20210;-82
2024/04/02 03:20:15;;;;;;;1.92;0.80;;;;;;;10.03;90.73;97363.28;4091231;28;20671;-82
2024/04/02 03:22:16;;;;;;;1.95;0.70;;;;;;;10.03;90.35;97368.47;4076455;29;20217;-82
2024/04/02 03:24:19;;;;;;;1.92;0.63;;;;;;;10.04;90.48;97364.94;4078921;29;20206;-82
2024/04/02 03:26:20;;;;;;;1.80;0.70;;;;;;;10.03;90.14;97367.66;4072799;29;20215;-82
2024/04/02 03:28:23;;;;;;;1.90;0.80;;;;;;;10.03;90.56;97371.09;4033453;29;20236;-82
2024/04/02 03:30:25;;;;;;;1.73;0.80;;;;;;;10.06;90.82;97381.28;4045372;29;20749;-82
2024/04/02 03:32:29;;;;;;;1.57;0.80;;;;;;;10.04;90.55;97379.72;4053994;28;1101808;-82
2024/04/02 03:34:30;;;;;;;1.30;0.70;;;;;;;10.03;90.49;97378.09;4056722;29;20232;-82
2024/04/02 03:36:34;;;;;;;1.77;0.70;;;;;;;10.06;90.60;97377.84;4061988;29;20634;-82
2024/04/02 03:38:36;;;;;;;2.67;0.90;;;;;;;10.10;90.46;97384.44;4076708;28;20631;-83
2024/04/02 03:40:40;;;;;;;2.15;0.98;;;;;;;10.12;90.78;97386.00;4058895;29;20623;-81
2024/04/02 03:42:42;;;;;;;1.40;0.70;;;;;;;10.10;89.86;97382.69;4091082;28;20206;-82
2024/04/02 03:44:44;;;;;;;1.77;0.65;;;;;;;10.11;90.54;97380.91;4077313;28;20765;-83
2024/04/02 03:46:45;;;;;;;1.77;0.87;;;;;;;10.08;90.55;97378.53;4041106;29;20766;-82
2024/04/02 03:48:49;;;;;;;1.53;0.70;;;;;;;10.07;89.22;97380.34;4087886;28;20622;-82
2024/04/02 03:50:50;;;;;;;1.93;0.90;;;;;;;10.09;89.92;97381.03;4072999;29;21290;-82
2024/04/02 03:52:55;;;;;;;2.80;1.00;;;;;;;10.10;89.59;97385.31;4089344;28;20642;-82
2024/04/02 03:54:56;;;;;;;1.40;0.75;;;;;;;10.12;89.87;97383.41;4074244;29;20349;-82
2024/04/02 03:56:59;;;;;;;1.80;1.00;;;;;;;10.13;89.41;97387.66;4092616;28;20292;-80
2024/04/02 03:59:00;;;;;;;2.60;1.00;;;;;;;10.17;89.78;97390.84;4063282;29;20293;-81
2024/04/02 04:01:05;;;;;;;1.80;0.90;;;;;;;10.17;88.93;97394.28;4058496;29;21236;-82
2024/04/02 04:03:06;;;;;;;1.57;0.70;;;;;;;10.14;89.43;97394.53;4072067;29;20641;-81
2024/04/02 04:05:08;;;;;;;1.60;0.83;;;;;;;10.18;89.49;97389.88;4059444;29;20670;-82
2024/04/02 04:07:10;;;;;;;1.70;0.90;;;;;;;10.18;89.20;97393.34;4056846;29;20682;-82
2024/04/02 04:09:13;;;;;;;2.50;0.90;;;;;;;10.13;88.78;97395.50;4075924;29;20697;-82
2024/04/02 04:11:15;;;;;;;1.50;0.70;;;;;;;10.14;89.12;97393.69;4062463;29;21018;-82
2024/04/02 04:13:16;;;;;;;1.40;0.80;;;;;;;10.17;89.09;97404.69;4057454;29;20683;-82
2024/04/02 04:15:18;;;;;;;1.50;0.67;;;;;;;10.23;88.65;97409.44;4055354;29;20262;-82
2024/04/02 04:17:20;;;;;;;1.50;0.90;;;;;;;10.28;88.71;97409.91;4060653;29;20686;-83
2024/04/02 04:19:22;;;;;;;1.40;0.80;;;;;;;10.32;88.85;97411.34;4058679;29;20643;-83
2024/04/02 04:21:23;;;;;;;1.40;0.70;;;;;;;10.35;88.84;97406.69;4061011;29;20627;-82
2024/04/02 04:23:26;;;;;;;1.80;0.87;;;;;;;10.39;88.63;97410.72;4072885;29;20634;-82
2024/04/02 04:25:29;;;;;;;2.50;0.80;;;;;;;10.41;88.31;97405.41;4077873;29;20646;-83
2024/04/02 04:27:33;;;;;;;1.53;0.90;;;;;;;10.43;87.92;97408.69;4049980;29;20631;-83
2024/04/02 04:29:35;;;;;;;2.20;0.90;;;;;;;10.46;88.59;97419.75;4084587;28;20625;-82
2024/04/02 04:31:45;;;;;;;2.03;0.80;;;;;;;10.48;88.09;97417.00;4045569;29;20620;-82
2024/04/02 04:33:47;;;;;;;1.70;0.80;;;;;;;10.48;86.93;97417.84;4075448;29;21261;-81
2024/04/02 04:35:49;;;;;;;2.93;1.10;;;;;;;10.49;88.28;97429.06;4069187;29;20635;-82
2024/04/02 04:37:51;;;;;;;2.40;0.80;;;;;;;10.48;87.53;97425.66;4057704;29;20780;-83
2024/04/02 04:39:56;;;;;;;3.97;0.90;;;;;;;10.48;87.28;97433.47;4057923;29;20726;-82
2024/04/02 04:41:58;;;;;;;2.00;1.00;;;;;;;10.50;86.77;97435.97;4058643;29;20719;-82
2024/04/02 04:44:02;;;;;;;1.40;0.70;;;;;;;10.45;88.12;97438.09;4076904;29;20626;-83
2024/04/02 04:46:03;;;;;;;1.90;1.00;;;;;;;10.45;86.90;97438.09;4079045;29;20721;-82
2024/04/02 04:48:07;;;;;;;2.20;0.77;;;;;;;10.45;87.87;97443.31;4088248;28;20658;-83
2024/04/02 04:50:08;;;;;;;1.50;0.80;;;;;;;10.47;87.22;97438.81;4063649;29;21307;-82
2024/04/02 04:52:17;;;;;;;1.43;0.77;;;;;;;10.47;86.99;97444.03;4069020;29;20246;-82
2024/04/02 04:54:18;;;;;;;2.70;1.00;;;;;;;10.45;87.37;97440.72;4067806;29;20678;-82
2024/04/02 04:56:21;;;;;;;1.93;0.90;;;;;;;10.46;86.11;97437.13;4072900;29;21076;-82
2024/04/02 04:58:24;;;;;;;1.80;1.00;;;;;;;10.51;87.11;97442.84;4063982;29;20666;-82
2024/04/02 05:00:26;;;;;;;4.03;0.83;;;;;;;10.51;86.54;97448.06;4070585;29;20630;-83
2024/04/02 05:02:27;;;;;;;1.60;0.77;;;;;;;10.50;87.23;97452.41;4078371;28;20638;-82
2024/04/02 05:04:31;;;;;;;3.10;0.87;;;;;;;10.52;86.49;97455.72;4068106;29;20619;-83
2024/04/02 05:06:37;;;;;;;3.30;1.00;;;;;;;10.52;86.35;97458.34;4069356;29;21207;-82
2024/04/02 05:08:40;;;;;;;1.73;0.80;;;;;;;10.42;86.52;97462.63;4056743;29;20620;-82
2024/04/02 05:10:42;;;;;;;4.27;0.90;;;;;;;10.38;86.81;97462.97;4061934;29;20638;-83
2024/04/02 05:12:44;;;;;;;1.97;0.80;;;;;;;10.31;87.72;97459.19;4059887;29;21516;-83
2024/04/02 05:14:48;;;;;;;1.60;0.87;;;;;;;10.28;86.92;97459.41;4078681;29;20798;-82
2024/04/02 05:16:50;;;;;;;2.30;0.80;;;;;;;10.28;87.50;97463.81;4063844;29;20623;-82
2024/04/02 05:18:51;;;;;;;2.00;0.70;;;;;;;10.23;87.80;97469.38;4044268;29;20616;-82
2024/04/02 05:20:54;;;;;;;3.10;0.90;;;;;;;10.20;87.78;97474.81;4062013;29;20794;-82
2024/04/02 05:22:56;;;;;;;2.00;0.80;;;;;;;10.22;87.56;97469.50;4059514;29;20725;-83
2024/04/02 05:24:59;;;;;;;1.67;0.70;;;;;;;10.19;87.88;97474.94;4076642;29;21204;-82
2024/04/02 05:27:02;;;;;;;1.60;0.90;;;;;;;10.20;88.00;97474.00;4089066;28;20625;-82
2024/04/02 05:29:05;;;;;;;2.07;0.90;;;;;;;10.22;87.78;97474.69;4080582;29;20622;-82
2024/04/02 05:31:09;;;;;;;2.03;0.90;;;;;;;10.21;88.36;97480.84;4058452;29;20724;-83
2024/04/02 05:33:11;;;;;;;2.00;1.00;;;;;;;10.20;88.71;97482.63;4049787;29;20770;-82
2024/04/02 05:35:13;;;;;;;2.93;1.00;;;;;;;10.17;87.84;97489.88;4060184;29;20670;-83
2024/04/02 05:37:16;;;;;;;1.50;0.80;;;;;;;10.12;88.47;97492.81;4032082;29;20625;-83
2024/04/02 05:39:17;;;;;;;4.50;0.73;;;;;;;10.09;88.37;97490.44;4046808;29;21261;-82
2024/04/02 05:41:18;;;;;;;1.73;0.80;;;;;;;10.10;88.88;97492.13;4083164;28;20633;-83
2024/04/02 05:43:20;;;;;;;1.77;0.70;;;;;;;10.06;88.74;97497.69;4052518;29;20636;-82
2024/04/02 05:45:22;;;;;;;2.10;0.77;;;;;;;10.01;88.63;97498.03;4063410;28;20631;-82
2024/04/02 05:47:27;;;;;;;1.40;0.73;;;;;;;9.97;88.95;97490.56;4072520;29;20626;-82
2024/04/02 05:49:29;;;;;;;2.35;0.90;;;;;;;9.93;88.99;97489.09;4042617;29;21088;-83
2024/04/02 05:51:32;;;;;;;1.70;0.80;;;;;;;9.93;89.20;97492.53;4064054;29;20233;-84
2024/04/02 05:53:34;;;;;;;1.67;0.90;;;;;;;9.94;89.09;97488.19;4062687;29;20665;-84
2024/04/02 05:55:37;;;;;;;4.55;1.58;;;;;;;9.93;89.08;97492.53;4057518;29;20237;-84
2024/04/02 05:57:39;;;;;;;3.47;2.45;;;;;;;9.92;89.67;97506.50;4049105;29;20212;-82
2024/04/02 05:59:42;;;;;;;1.55;0.73;;;;;;;9.96;89.07;97507.94;4064868;29;20210;-83
2024/04/02 06:01:43;;;;;;;6.20;1.30;;;;;;;9.98;89.06;97502.63;4048274;29;20203;-82
2024/04/02 06:03:47;;;;;;;2.55;1.00;;;;;;;9.87;88.80;97503.38;4066483;29;20634;-82
2024/04/02 06:05:48;;;;;;;1.92;1.00;;;;;;;9.95;89.20;97510.66;4051673;29;20746;-82
2024/04/02 06:07:55;;;;;;;1.50;0.70;;;;;;;9.98;89.25;97508.66;4077594;29;20218;-82
2024/04/02 06:09:57;;;;;;;2.00;0.90;;;;;;;9.95;88.87;97508.06;4064883;29;20726;-82
2024/04/02 06:11:59;;;;;;;1.50;0.80;;;;;;;9.97;89.78;97509.59;4057887;29;20270;-82
2024/04/02 06:14:01;;;;;;;1.63;0.60;;;;;;;9.96;89.53;97515.75;4074780;29;20711;-83
2024/04/02 06:16:04;;;;;;;1.40;0.70;;;;;;;9.94;89.31;97522.03;4064037;29;20224;-83
2024/04/02 06:18:06;;;;;;;2.83;0.70;;;;;;;9.99;89.48;97525.13;4093065;28;20213;-83
2024/04/02 06:20:10;;;;;;;2.27;0.77;;;;;;;10.01;89.48;97534.50;4054202;29;20211;-82
2024/04/02 06:22:11;;;;;;;2.72;0.80;;;;;;;10.09;89.11;97534.75;4078672;29;20661;-82
2024/04/02 06:24:14;;;;;;;2.10;0.73;;;;;;;10.04;88.70;97536.88;4046868;29;20795;-83
2024/04/02 06:26:17;;;;;;;2.95;0.82;;;;;;;10.04;89.05;97538.63;4044168;29;20199;-83
2024/04/02 06:28:19;;;;;;;4.53;0.90;;;;;;;10.06;88.80;97540.19;4073882;29;20205;-83
2024/04/02 06:30:20;;;;;;;5.73;0.70;;;;;;;10.08;89.53;97543.50;4073336;29;20229;-83
2024/04/02 06:32:23;;;;;;;1.40;0.65;;;;;;;10.13;89.15;97541.38;4053626;29;20681;-82
2024/04/02 06:34:25;;;;;;;1.98;0.70;;;;;;;10.07;89.32;97541.84;4062547;29;20233;-83
2024/04/02 06:36:29;;;;;;;1.30;0.70;;;;;;;10.10;89.18;97546.84;4033686;29;20593;-83
2024/04/02 06:38:30;;;;;;;2.27;0.90;;;;;;;10.10;89.22;97556.41;4066043;29;20210;-82
2024/04/02 06:40:33;;;;;;;2.20;0.90;;;;;;;10.13;90.18;97553.56;4050057;29;20731;-83
2024/04/02 06:42:34;;;;;;;1.80;0.80;;;;;;;10.11;90.07;97558.88;4076464;29;20633;-82
2024/04/02 06:44:36;;;;;;;2.40;0.80;;;;;;;10.14;89.76;97563.06;4062982;29;21245;-82
2024/04/02 06:46:39;;;;;;;1.40;0.68;;;;;;;10.14;90.18;97563.88;4065138;29;20635;-83
2024/04/02 06:48:41;;;;;;;2.60;0.80;;;;;;;10.19;90.27;97564.34;4062213;29;21820;-82
2024/04/02 06:50:42;;;;;;;2.07;0.90;;;;;;;10.19;90.17;97574.78;4075589;29;20642;-82
2024/04/02 06:52:46;;;;;;;1.57;0.67;;;;;;;10.21;90.20;97564.22;4076071;29;20648;-83
2024/04/02 06:54:47;;;;;;;1.48;0.70;;;;;;;10.26;91.16;97573.38;4086273;28;21104;-82
2024/04/02 06:56:51;;;;;;;1.60;0.82;;;;;;;10.21;90.28;97562.47;4065522;29;20306;-83
2024/04/02 06:58:54;;;;;;;1.58;0.70;;;;;;;10.22;90.67;97577.16;4081066;29;20226;-82
2024/04/02 07:00:56;;;;;;;1.87;0.70;;;;;;;10.31;91.20;97563.44;4076073;29;20289;-82
2024/04/02 07:03:00;;;;;;;2.00;0.70;;;;;;;10.35;89.18;97576.09;4086110;28;20680;-82
2024/04/02 07:05:02;;;;;;;2.23;0.70;;;;;;;10.42;90.48;97584.31;4072646;29;20249;-83
2024/04/02 07:07:04;;;;;;;1.70;0.40;;;;;;;10.50;89.75;97582.78;4058334;29;20690;-83
2024/04/02 07:09:08;;;;;;;1.67;0.60;;;;;;;10.57;89.58;97583.97;4059818;29;21281;-83
2024/04/02 07:11:10;;;;;;;1.20;0.50;;;;;;;10.66;88.37;97598.91;4069441;29;20676;-82
2024/04/02 07:13:12;;;;;;;1.77;0.60;;;;;;;10.67;88.92;97594.53;4056731;29;20290;-83
2024/04/02 07:15:14;;;;;;;1.30;0.50;;;;;;;10.71;88.38;97598.56;4079182;29;20293;-83
2024/04/02 07:17:17;;;;;;;4.33;0.80;;;;;;;10.70;88.64;97597.72;4058239;29;20724;-83
2024/04/02 07:19:18;;;;;;;1.70;0.73;;;;;;;10.74;87.57;97601.75;4060295;29;21002;-82
2024/04/02 07:21:20;;;;;;;1.88;0.50;;;;;;;10.74;87.12;97611.38;4076247;29;20627;-83
2024/04/02 07:23:22;;;;;;;1.20;0.50;;;;;;;10.73;88.05;97615.75;4050614;29;20642;-82
2024/04/02 07:25:26;;;;;;;1.40;0.60;;;;;;;10.80;87.74;97621.34;4050141;29;21417;-82
2024/04/02 07:27:27;;;;;;;2.20;0.90;;;;;;;10.86;89.36;97625.13;4064154;29;20631;-83
2024/04/02 07:29:29;;;;;;;1.90;0.50;;;;;;;10.86;88.72;97627.72;4049611;29;20996;-83
2024/04/02 07:31:30;;;;;;;3.83;0.80;;;;;;;10.89;89.72;97632.72;4089644;28;20712;-82
2024/04/02 07:33:33;;;;;;;1.73;0.40;;;;;;;10.82;89.24;97631.53;4060877;29;20643;-83
2024/04/02 07:35:35;;;;;;;1.60;0.60;;;;;;;10.85;89.93;97646.97;4089980;28;20703;-82
2024/04/02 07:37:37;;;;;;;1.50;0.53;;;;;;;10.82;89.28;97647.19;4044020;29;20629;-83
2024/04/02 07:39:39;;;;;;;3.70;0.70;;;;;;;10.90;89.17;97649.22;4060863;29;20679;-82
2024/04/02 07:41:42;;;;;;;1.60;0.70;;;;;;;10.94;87.80;97654.06;4062684;29;20651;-83
2024/04/02 07:43:47;;;;;;;1.30;0.57;;;;;;;11.03;89.21;97661.16;4088927;28;20626;-82
2024/04/02 07:45:51;;;;;;;1.70;0.70;;;;;;;11.05;90.02;97661.06;4063794;29;20650;-83
2024/04/02 07:47:54;;;;;;;2.83;0.70;;;;;;;11.04;87.90;97662.03;4072902;29;21160;-84
2024/04/02 07:49:56;;;;;;;1.67;0.63;;;;;;;10.97;89.48;97653.81;4058474;29;20679;-83
2024/04/02 07:51:58;;;;;;;1.80;0.70;;;;;;;11.00;88.09;97658.78;4064469;29;20619;-83
2024/04/02 07:53:59;;;;;;;2.03;0.50;;;;;;;11.03;86.97;97661.16;4060397;29;21339;-83
2024/04/02 07:56:02;;;;;;;2.80;0.63;;;;;;;11.05;87.48;97655.84;4051069;29;20667;-82
2024/04/02 07:58:05;;;;;;;2.50;0.87;;;;;;;11.13;88.14;97667.34;4066829;29;20736;-83
2024/04/02 08:00:08;;;;;;;2.40;0.87;;;;;;;11.21;89.02;97667.59;4061150;29;20663;-83
2024/04/02 08:02:10;;;;;;;1.93;0.63;;;;;;;11.41;88.46;97672.94;4072372;29;20667;-82
2024/04/02 08:04:12;;;;;;;1.40;0.60;;;;;;;11.61;86.49;97664.38;4062685;29;20782;-82
2024/04/02 08:06:13;;;;;;;2.40;1.07;;;;;;;11.78;87.27;97672.53;4058088;29;20624;-82
2024/04/02 08:08:18;;;;;;;2.73;0.80;;;;;;;11.83;86.38;97673.00;4049506;29;21022;-84
2024/04/02 08:10:20;;;;;;;2.13;0.80;;;;;;;11.91;85.68;97672.41;4068819;29;20621;-82
2024/04/02 08:12:22;;;;;;;2.60;0.70;;;;;;;12.01;86.20;97679.38;4072243;28;20669;-82
2024/04/02 08:14:31;;;;;;;1.80;0.73;;;;;;;12.22;84.93;97684.63;4095048;28;20685;-82
2024/04/02 08:16:33;;;;;;;4.90;1.43;;;;;;;12.30;86.16;97675.22;4093254;28;21021;-82
2024/04/02 08:18:35;;;;;;;4.83;0.80;;;;;;;12.39;84.26;97680.53;4053304;29;20632;-83
2024/04/02 08:20:37;;;;;;;4.30;0.90;;;;;;;12.63;84.34;97680.28;4065539;29;20639;-83
2024/04/02 08:22:38;;;;;;;2.53;0.80;;;;;;;12.56;81.64;97676.53;4064269;29;21189;-84
2024/04/02 08:24:41;;;;;;;2.97;0.77;;;;;;;12.54;82.86;97683.66;4065092;29;20658;-85
2024/04/02 08:26:43;;;;;;;3.03;0.97;;;;;;;12.53;82.57;97695.09;4057992;29;20654;-84
2024/04/02 08:28:46;;;;;;;6.87;2.20;;;;;;;12.51;82.50;97683.91;4056690;29;20639;-83
2024/04/02 08:30:48;;;;;;;3.00;1.20;;;;;;;12.51;80.77;97692.59;4064148;29;21528;-82
2024/04/02 08:32:51;;;;;;;3.37;1.30;;;;;;;12.49;80.98;97693.66;4062869;29;20693;-80
2024/04/02 08:34:52;;;;;;;3.60;1.40;;;;;;;12.47;81.06;97687.75;4062983;29;20664;-84
2024/04/02 08:36:54;;;;;;;4.50;1.10;;;;;;;12.47;82.97;97682.50;4040894;29;20723;-83
2024/04/02 08:38:55;;;;;;;2.90;1.40;;;;;;;12.48;82.06;97690.25;4070835;29;20691;-81
2024/04/02 08:41:03;;;;;;;3.53;1.17;;;;;;;12.48;81.81;97694.63;4053142;29;20623;-84
2024/04/02 08:43:05;;;;;;;3.43;1.20;;;;;;;12.46;79.99;97696.53;4077563;29;21187;-83
2024/04/02 08:45:09;;;;;;;4.77;1.20;;;;;;;12.43;81.06;97689.78;4056015;29;20623;-83
2024/04/02 08:47:12;;;;;;;3.50;1.30;;;;;;;12.37;81.72;97702.53;4041138;29;20704;-83
2024/04/02 08:49:15;;;;;;;4.53;1.23;;;;;;;12.30;83.39;97704.81;4078586;29;20674;-82
2024/04/02 08:51:17;;;;;;;4.80;1.33;;;;;;;12.27;83.90;97706.84;4074282;29;20670;-82
2024/04/02 08:53:19;;;;;;;3.43;1.30;;;;;;;12.28;84.37;97703.25;4079105;29;20620;-81
2024/04/02 08:55:20;;;;;;;4.77;1.10;;;;;;;12.34;85.02;97708.00;4059652;29;20680;-81
2024/04/02 08:57:23;;;;;;;2.37;0.90;;;;;;;12.41;84.61;97720.44;4046476;29;20709;-81
2024/04/02 08:59:27;;;;;;;2.70;1.20;;;;;;;12.49;86.07;97718.03;4064224;29;20671;-80
2024/04/02 09:01:30;;;;;;;6.03;1.30;;;;;;;12.53;83.64;97734.34;4041322;29;20629;-81
2024/04/02 09:03:34;;;;;;;4.20;1.47;;;;;;;12.53;83.28;97729.09;4057764;29;20618;-81
2024/04/02 09:05:37;;;;;;;4.27;1.00;;;;;;;12.54;81.33;97730.75;4047341;29;20739;-81
2024/04/02 09:07:38;;;;;;;7.53;1.20;;;;;;;12.65;83.07;97728.91;4062458;29;20992;-81
2024/04/02 09:09:42;;;;;;;3.60;1.30;;;;;;;12.69;81.37;97727.72;4070659;29;20702;-81
2024/04/02 09:11:44;;;;;;;2.93;1.00;;;;;;;12.66;80.69;97729.72;4085445;28;20978;-81
2024/04/02 09:13:46;;;;;;;4.37;1.10;;;;;;;12.53;78.88;97732.53;4056880;29;20718;-81
2024/04/02 09:15:48;;;;;;;3.97;1.40;;;;;;;12.40;80.29;97738.88;4061727;29;20651;-81
2024/04/02 09:17:50;;;;;;;3.63;1.10;;;;;;;12.29;83.44;97744.16;4047641;29;20623;-81
2024/04/02 09:19:55;;;;;;;4.70;1.03;;;;;;;12.10;85.97;97753.59;4058597;29;20663;-81
2024/04/02 09:21:57;;;;;;;3.87;1.17;;;;;;;11.96;86.21;97757.31;4061914;29;21108;-80
2024/04/02 09:23:58;;;;;;;5.50;1.00;;;;;;;11.50;86.54;97747.13;4084228;29;21272;-80
2024/04/02 09:26:00;;;;;;;3.17;1.10;;;;;;;11.23;90.23;97751.84;4065040;29;20774;-81
2024/04/02 09:28:02;;;;;;;6.17;0.70;;;;;;;11.22;90.54;97746.75;4054225;29;20738;-81
2024/04/02 09:30:06;;;;;;;4.17;1.00;;;;;;;11.25;90.00;97739.50;4065889;29;20634;-80
2024/04/02 09:32:07;;;;;;;4.20;1.00;;;;;;;11.29;90.16;97730.50;4052382;29;20664;-80
2024/04/02 09:34:10;;;;;;;2.57;1.07;;;;;;;11.43;91.29;97745.94;4050227;29;20626;-81
2024/04/02 09:36:31;;;;;;;3.57;1.40;;;;;;;11.59;92.79;97746.41;4035229;29;20652;-81